Time;durP1;ratioP1;P1;durP2;ratioP2;P2;SDS_P1;SDS_P2;PMS_P1;PMS_P2;Temp;Humidity;BMP_temperature;BMP_pressure;BME280_temperature;BME280_humidity;BME280_pressure;Samples;Min_cycle;Max_cycle;Signal;HPM_P1;HPM_P2
2022/07/31 00:00:53;0.00;0.00;0.62;0.00;0.00;0.62;6.10;4.60;;;27.60;37.30;;;;;;2221517;62;20770;-64
2022/07/31 00:03:40;0.00;0.00;0.62;0.00;0.00;0.62;4.40;3.87;;;27.60;37.30;;;;;;2222668;62;20586;-64
2022/07/31 00:06:25;0.00;0.00;0.62;0.00;0.00;0.62;4.40;3.80;;;27.60;37.30;;;;;;2222170;62;20382;-63
2022/07/31 00:09:11;0.00;0.00;0.62;0.00;0.00;0.62;5.50;4.37;;;27.50;37.20;;;;;;2224375;62;20455;-63
2022/07/31 00:11:55;0.00;0.00;0.62;0.00;0.00;0.62;6.67;3.87;;;27.50;37.20;;;;;;2226407;62;20577;-63
2022/07/31 00:14:41;0.00;0.00;0.62;0.00;0.00;0.62;3.90;3.50;;;27.50;37.20;;;;;;2226015;62;20369;-62
2022/07/31 00:17:26;0.00;0.00;0.62;0.00;0.00;0.62;4.10;3.70;;;27.40;37.20;;;;;;2225905;62;20815;-62
2022/07/31 00:20:14;0.00;0.00;0.62;0.00;0.00;0.62;5.03;4.50;;;27.40;37.30;;;;;;2474477;46;20451;-63
2022/07/31 00:22:59;0.00;0.00;0.62;0.00;0.00;0.62;5.73;4.87;;;27.30;37.30;;;;;;2223748;62;20367;-63
2022/07/31 00:25:44;0.00;0.00;0.62;0.00;0.00;0.62;5.10;4.60;;;27.30;37.40;;;;;;2222574;62;20436;-63
2022/07/31 00:28:29;0.00;0.00;0.62;0.00;0.00;0.62;5.37;4.00;;;27.20;37.40;;;;;;2221920;62;20641;-63
2022/07/31 00:31:17;0.00;0.00;0.62;0.00;0.00;0.62;7.33;4.33;;;27.20;37.60;;;;;;2221780;62;20481;-63
2022/07/31 00:34:01;0.00;0.00;0.62;0.00;0.00;0.62;5.47;4.87;;;27.10;37.60;;;;;;2222178;62;20379;-63
2022/07/31 00:36:46;0.00;0.00;0.62;0.00;0.00;0.62;11.03;4.50;;;27.10;37.80;;;;;;2222141;62;20585;-63
2022/07/31 00:39:31;0.00;0.00;0.62;0.00;0.00;0.62;5.60;4.27;;;27.00;37.80;;;;;;2224994;62;20401;-63
2022/07/31 00:42:17;0.00;0.00;0.62;0.00;0.00;0.62;5.03;3.90;;;27.00;37.80;;;;;;2226131;62;20365;-63
2022/07/31 00:45:03;0.00;0.00;0.62;0.00;0.00;0.62;4.53;4.00;;;27.00;38.00;;;;;;2225334;62;20373;-61
2022/07/31 00:47:49;0.00;0.00;0.62;0.00;0.00;0.62;5.60;4.33;;;27.00;38.00;;;;;;2222623;62;20580;-63
2022/07/31 00:50:34;0.00;0.00;0.62;0.00;0.00;0.62;4.50;4.10;;;27.00;38.00;;;;;;2222132;62;20390;-63
2022/07/31 00:53:19;0.00;0.00;0.62;0.00;0.00;0.62;9.07;4.10;;;27.00;38.10;;;;;;2221355;62;20686;-62
2022/07/31 00:56:04;0.00;0.00;0.62;0.00;0.00;0.62;6.40;4.80;;;27.00;38.10;;;;;;2222223;62;20372;-62
2022/07/31 00:58:50;0.00;0.00;0.62;0.00;0.00;0.62;5.27;4.50;;;27.00;38.10;;;;;;2222007;62;20469;-62
2022/07/31 01:01:34;0.00;0.00;0.62;0.00;0.00;0.62;5.37;4.00;;;27.00;38.20;;;;;;2221731;62;20581;-63
2022/07/31 01:04:22;0.00;0.00;0.62;0.00;0.00;0.62;4.07;3.67;;;27.00;38.20;;;;;;2222243;62;20424;-63
2022/07/31 01:07:08;0.00;0.00;0.62;0.00;0.00;0.62;4.70;4.30;;;27.00;38.20;;;;;;2221662;62;20704;-63
2022/07/31 01:09:54;0.00;0.00;0.62;0.00;0.00;0.62;4.40;4.10;;;27.00;38.20;;;;;;2225279;62;20438;-63
2022/07/31 01:12:46;0.00;0.00;0.62;0.00;0.00;0.62;4.97;4.13;;;27.00;38.30;;;;;;2226227;62;20357;-62
2022/07/31 01:15:31;0.00;0.00;0.62;0.00;0.00;0.62;4.43;4.07;;;27.00;38.30;;;;;;2225511;62;20438;-62
2022/07/31 01:18:19;0.00;0.00;0.62;0.00;0.00;0.62;7.50;4.13;;;27.00;38.30;;;;;;2223659;62;20384;-63
2022/07/31 01:21:10;0.00;0.00;0.62;0.00;0.00;0.62;4.47;4.07;;;27.00;38.30;;;;;;2225482;62;20386;-63
2022/07/31 01:24:38;0.00;0.00;0.62;0.00;0.00;0.62;6.00;4.30;;;27.00;38.40;;;;;;2225295;62;20722;-63
2022/07/31 01:27:44;0.00;0.00;0.62;0.00;0.00;0.62;5.10;4.70;;;27.00;38.30;;;;;;2225851;62;20459;-62
2022/07/31 01:30:34;0.00;0.00;0.62;0.00;0.00;0.62;5.63;5.13;;;26.90;38.30;;;;;;2224927;62;20438;-63
2022/07/31 01:33:22;0.00;0.00;0.62;0.00;0.00;0.62;9.57;5.87;;;26.90;38.30;;;;;;2225725;62;20701;-63
2022/07/31 01:36:15;0.00;0.00;0.62;0.00;0.00;0.62;5.40;4.90;;;26.90;38.40;;;;;;2225549;62;20415;-63
2022/07/31 01:39:01;0.00;0.00;0.62;0.00;0.00;0.62;5.07;3.80;;;26.90;38.40;;;;;;2224839;62;20390;-63
2022/07/31 01:41:47;0.00;0.00;0.62;0.00;0.00;0.62;3.93;3.53;;;26.80;38.40;;;;;;2223210;62;20367;-63
2022/07/31 01:44:40;0.00;0.00;0.62;0.00;0.00;0.62;7.17;5.83;;;26.80;38.40;;;;;;2224665;62;20487;-62
2022/07/31 01:47:29;0.00;0.00;0.62;0.00;0.00;0.62;6.83;4.90;;;26.80;38.40;;;;;;2225726;62;20401;-62
2022/07/31 01:50:14;0.00;0.00;0.62;0.00;0.00;0.62;9.63;5.33;;;26.90;38.50;;;;;;2449324;54;20411;-62
2022/07/31 01:53:00;0.00;0.00;0.62;0.00;0.00;0.62;7.50;5.60;;;26.90;38.60;;;;;;2223551;62;20801;-62
2022/07/31 01:55:47;0.00;0.00;0.62;0.00;0.00;0.62;6.10;5.00;;;26.80;38.50;;;;;;2222014;62;20402;-62
2022/07/31 01:58:36;0.00;0.00;0.62;0.00;0.00;0.62;5.93;5.37;;;26.80;38.50;;;;;;2222769;62;20454;-62
2022/07/31 02:01:27;0.00;0.00;0.62;0.00;0.00;0.62;5.13;4.70;;;26.80;38.60;;;;;;2225534;62;20447;-62
2022/07/31 02:04:14;0.00;0.00;0.62;0.00;0.00;0.62;4.70;4.30;;;26.80;38.60;;;;;;2226374;62;20659;-62
2022/07/31 02:07:06;0.00;0.00;0.62;0.00;0.00;0.62;6.37;4.23;;;26.80;38.70;;;;;;2225304;62;20422;-62
2022/07/31 02:09:53;0.00;0.00;0.62;0.00;0.00;0.62;4.70;4.30;;;26.80;38.70;;;;;;2226266;62;20466;-62
2022/07/31 02:12:42;0.00;0.00;0.62;0.00;0.00;0.62;4.43;4.00;;;26.80;38.70;;;;;;2225861;62;20385;-62
2022/07/31 02:15:28;0.00;0.00;0.62;0.00;0.00;0.62;5.70;4.00;;;26.80;38.80;;;;;;2226132;62;20362;-62
2022/07/31 02:18:14;0.00;0.00;0.62;0.00;0.00;0.62;4.30;3.90;;;26.80;38.80;;;;;;2226665;62;20434;-62
2022/07/31 02:21:19;0.00;0.00;0.62;0.00;0.00;0.62;3.83;3.53;;;26.80;38.80;;;;;;2225215;62;20458;-63
2022/07/31 02:24:05;0.00;0.00;0.62;0.00;0.00;0.62;4.90;3.50;;;26.80;38.80;;;;;;2226458;62;20484;-63
2022/07/31 02:26:51;0.00;0.00;0.62;0.00;0.00;0.62;4.33;3.73;;;26.80;38.70;;;;;;2226156;62;20454;-63
2022/07/31 02:29:36;0.00;0.00;0.62;0.00;0.00;0.62;3.60;3.30;;;26.80;38.60;;;;;;2224091;62;20454;-63
2022/07/31 02:32:22;0.00;0.00;0.62;0.00;0.00;0.62;4.97;3.63;;;26.90;38.60;;;;;;2226737;62;20370;-63
2022/07/31 02:35:08;0.00;0.00;0.62;0.00;0.00;0.62;4.50;4.07;;;26.90;38.60;;;;;;2225949;62;20693;-63
2022/07/31 02:37:55;0.00;0.00;0.62;0.00;0.00;0.62;5.03;4.17;;;26.90;38.60;;;;;;2226027;62;20362;-61
2022/07/31 02:40:41;0.00;0.00;0.62;0.00;0.00;0.62;4.70;3.43;;;27.00;38.60;;;;;;2226317;62;20414;-63
2022/07/31 02:43:27;0.00;0.00;0.62;0.00;0.00;0.62;3.43;3.13;;;27.00;38.50;;;;;;2225629;62;20374;-63
2022/07/31 02:46:14;0.00;0.00;0.62;0.00;0.00;0.62;3.30;3.00;;;27.00;38.40;;;;;;2226389;62;20741;-63
2022/07/31 02:48:59;0.00;0.00;0.62;0.00;0.00;0.62;5.03;3.90;;;27.00;38.30;;;;;;2225932;62;20409;-63
2022/07/31 02:51:44;0.00;0.00;0.62;0.00;0.00;0.62;5.20;4.30;;;27.00;38.30;;;;;;2225545;62;20373;-62
2022/07/31 02:54:30;0.00;0.00;0.62;0.00;0.00;0.62;3.77;3.23;;;27.10;38.30;;;;;;2226649;62;20370;-62
2022/07/31 02:57:16;0.00;0.00;0.62;0.00;0.00;0.62;3.30;3.00;;;27.10;38.30;;;;;;2225904;62;20689;-62
2022/07/31 03:00:01;0.00;0.00;0.62;0.00;0.00;0.62;5.80;4.60;;;27.10;38.20;;;;;;2225522;62;20389;-62
2022/07/31 03:02:47;0.00;0.00;0.62;0.00;0.00;0.62;4.83;3.80;;;27.10;38.20;;;;;;2226282;62;20584;-63
2022/07/31 03:05:32;0.00;0.00;0.62;0.00;0.00;0.62;4.93;4.33;;;27.10;38.20;;;;;;2225575;62;20722;-63
2022/07/31 03:08:16;0.00;0.00;0.62;0.00;0.00;0.62;6.63;5.13;;;27.20;38.40;;;;;;2223315;62;20676;-61
2022/07/31 03:11:05;0.00;0.00;0.62;0.00;0.00;0.62;7.10;5.53;;;27.20;38.30;;;;;;2222100;62;20739;-62
2022/07/31 03:13:52;0.00;0.00;0.62;0.00;0.00;0.62;5.80;4.83;;;27.20;38.30;;;;;;2221439;62;20375;-62
2022/07/31 03:16:38;0.00;0.00;0.62;0.00;0.00;0.62;5.00;4.60;;;27.10;38.20;;;;;;2224901;62;20371;-63
2022/07/31 03:19:25;0.00;0.00;0.62;0.00;0.00;0.62;5.47;4.97;;;27.10;38.20;;;;;;2224835;62;20677;-62
2022/07/31 03:22:10;0.00;0.00;0.62;0.00;0.00;0.62;6.97;6.27;;;27.10;38.20;;;;;;2225496;62;20415;-62
2022/07/31 03:24:56;0.00;0.00;0.62;0.00;0.00;0.62;6.53;5.93;;;27.10;38.20;;;;;;2226060;62;20374;-62
2022/07/31 03:27:42;0.00;0.00;0.62;0.00;0.00;0.62;6.53;5.90;;;27.10;38.20;;;;;;2225611;62;20686;-62
2022/07/31 03:30:27;0.00;0.00;0.62;0.00;0.00;0.62;6.60;5.23;;;27.00;38.20;;;;;;2226324;62;20394;-62
2022/07/31 03:33:14;0.00;0.00;0.62;0.00;0.00;0.62;6.63;5.50;;;27.00;38.20;;;;;;2226039;62;20469;-62
2022/07/31 03:35:59;0.00;0.00;0.62;0.00;0.00;0.62;6.83;6.23;;;27.00;38.30;;;;;;2225454;62;20634;-61
2022/07/31 03:38:45;0.00;0.00;0.62;0.00;0.00;0.62;5.93;5.30;;;27.00;38.40;;;;;;2223944;62;20398;-63
2022/07/31 03:41:39;0.00;0.00;0.62;0.00;0.00;0.62;5.50;5.00;;;26.90;38.40;;;;;;2221919;62;20618;-61
2022/07/31 03:44:26;0.00;0.00;0.62;0.00;0.00;0.62;6.33;5.77;;;26.90;38.50;;;;;;2221417;62;20370;-62
2022/07/31 03:47:11;0.00;0.00;0.62;0.00;0.00;0.62;6.90;5.73;;;26.90;38.50;;;;;;2222545;62;20606;-63
2022/07/31 03:49:59;0.00;0.00;0.62;0.00;0.00;0.62;7.17;6.40;;;26.90;38.50;;;;;;2225049;62;20613;-62
2022/07/31 03:52:46;0.00;0.00;0.62;0.00;0.00;0.62;4.50;4.10;;;26.80;38.50;;;;;;2225980;62;20415;-62
2022/07/31 03:55:33;0.00;0.00;0.62;0.00;0.00;0.62;4.20;3.80;;;26.80;38.50;;;;;;2226159;62;20401;-62
2022/07/31 03:58:19;0.00;0.00;0.62;0.00;0.00;0.62;3.73;3.37;;;26.80;38.50;;;;;;2225186;62;20362;-62
2022/07/31 04:01:06;0.00;0.00;0.62;0.00;0.00;0.62;7.00;4.70;;;26.80;38.40;;;;;;2226512;62;20580;-62
2022/07/31 04:03:57;0.00;0.00;0.62;0.00;0.00;0.62;5.50;5.00;;;26.90;38.60;;;;;;2226129;62;20378;-63
2022/07/31 04:06:51;0.00;0.00;0.62;0.00;0.00;0.62;6.57;5.50;;;26.90;38.60;;;;;;2225582;62;20373;-62
2022/07/31 04:09:37;0.00;0.00;0.62;0.00;0.00;0.62;4.57;4.17;;;26.90;38.70;;;;;;2225903;62;20401;-62
2022/07/31 04:12:23;0.00;0.00;0.62;0.00;0.00;0.62;7.90;6.20;;;26.90;38.60;;;;;;2224907;62;20379;-62
2022/07/31 04:15:09;0.00;0.00;0.62;0.00;0.00;0.62;10.20;7.80;;;26.90;38.60;;;;;;2226071;62;20361;-63
2022/07/31 04:17:56;0.00;0.00;0.62;0.00;0.00;0.62;8.83;8.03;;;26.80;38.70;;;;;;2225154;62;20726;-63
2022/07/31 04:20:46;0.00;0.00;0.62;0.00;0.00;0.62;8.53;7.27;;;26.80;38.70;;;;;;2221380;62;20459;-63
2022/07/31 04:23:31;0.00;0.00;0.62;0.00;0.00;0.62;8.53;7.50;;;26.80;38.80;;;;;;2222103;62;20371;-63
2022/07/31 04:26:49;0.00;0.00;0.62;0.00;0.00;0.62;9.00;8.20;;;26.70;38.90;;;;;;2226117;62;20409;-63
2022/07/31 04:29:35;0.00;0.00;0.62;0.00;0.00;0.62;10.00;7.73;;;26.70;39.10;;;;;;2221851;62;20499;-63
2022/07/31 04:32:20;0.00;0.00;0.62;0.00;0.00;0.62;8.90;7.33;;;26.60;39.10;;;;;;2221999;62;20735;-62
2022/07/31 04:35:12;0.00;0.00;0.62;0.00;0.00;0.62;9.33;8.43;;;26.50;39.20;;;;;;2221348;62;20788;-62
2022/07/31 04:37:56;0.00;0.00;0.62;0.00;0.00;0.62;10.40;9.00;;;26.50;39.50;;;;;;2222390;62;20378;-62
2022/07/31 04:40:42;0.00;0.00;0.62;0.00;0.00;0.62;8.23;7.43;;;26.40;39.50;;;;;;2225561;62;20787;-63
2022/07/31 04:43:26;0.00;0.00;0.62;0.00;0.00;0.62;9.73;8.17;;;26.40;39.70;;;;;;2225251;62;20730;-63
2022/07/31 04:46:12;0.00;0.00;0.62;0.00;0.00;0.62;9.00;7.77;;;26.30;39.80;;;;;;2225812;62;20373;-62
2022/07/31 04:48:56;0.00;0.00;0.62;0.00;0.00;0.62;8.23;7.40;;;26.30;39.90;;;;;;2225420;62;20419;-62
2022/07/31 04:51:45;0.00;0.00;0.62;0.00;0.00;0.62;8.67;7.77;;;26.20;39.90;;;;;;2225842;62;20430;-63
2022/07/31 04:54:30;0.00;0.00;0.62;0.00;0.00;0.62;9.53;8.53;;;26.20;40.00;;;;;;2226046;62;20389;-63
2022/07/31 04:57:16;0.00;0.00;0.62;0.00;0.00;0.62;8.87;7.63;;;26.20;40.20;;;;;;2225029;62;20403;-63
2022/07/31 05:00:01;0.00;0.00;0.62;0.00;0.00;0.62;14.20;7.43;;;26.10;40.20;;;;;;2225684;62;20414;-62
2022/07/31 05:02:50;0.00;0.00;0.62;0.00;0.00;0.62;9.10;6.90;;;26.00;40.20;;;;;;2225555;62;20366;-62
2022/07/31 05:05:35;0.00;0.00;0.62;0.00;0.00;0.62;10.57;6.70;;;26.00;40.50;;;;;;2225585;62;20378;-62
2022/07/31 05:08:22;0.00;0.00;0.62;0.00;0.00;0.62;7.40;6.77;;;25.90;40.50;;;;;;2225531;62;20402;-62
2022/07/31 05:11:22;0.00;0.00;0.62;0.00;0.00;0.62;8.40;7.33;;;25.90;40.50;;;;;;2221539;62;20424;-62
2022/07/31 05:14:10;0.00;0.00;0.62;0.00;0.00;0.62;8.70;5.97;;;25.90;40.50;;;;;;2221833;62;20512;-62
2022/07/31 05:16:55;0.00;0.00;0.62;0.00;0.00;0.62;7.43;6.73;;;25.90;40.50;;;;;;2222409;62;20713;-62
2022/07/31 05:19:41;0.00;0.00;0.62;0.00;0.00;0.62;8.70;7.87;;;25.80;40.40;;;;;;2224537;62;20473;-62
2022/07/31 05:22:52;0.00;0.00;0.62;0.00;0.00;0.62;10.20;7.87;;;25.80;40.60;;;;;;2225728;62;20369;-62
2022/07/31 05:25:57;0.00;0.00;0.62;0.00;0.00;0.62;9.70;7.80;;;25.80;40.80;;;;;;2225960;62;20653;-62
2022/07/31 05:28:43;0.00;0.00;0.62;0.00;0.00;0.62;7.40;6.60;;;25.70;40.90;;;;;;2228170;62;20401;-62
2022/07/31 05:31:28;0.00;0.00;0.62;0.00;0.00;0.62;7.30;6.53;;;25.80;41.00;;;;;;2225783;62;20370;-62
2022/07/31 05:34:13;0.00;0.00;0.62;0.00;0.00;0.62;7.50;6.70;;;25.70;41.00;;;;;;2225031;62;20359;-62
2022/07/31 05:37:00;0.00;0.00;0.62;0.00;0.00;0.62;7.87;5.47;;;25.70;41.10;;;;;;2223111;62;20418;-62
2022/07/31 05:39:45;0.00;0.00;0.62;0.00;0.00;0.62;6.20;5.27;;;25.70;41.10;;;;;;2223357;62;20883;-62
2022/07/31 05:42:50;0.00;0.00;0.62;0.00;0.00;0.62;7.57;6.83;;;25.70;41.20;;;;;;2226231;62;20353;-62
2022/07/31 05:45:54;0.00;0.00;0.62;0.00;0.00;0.62;6.33;5.73;;;25.70;41.20;;;;;;2226957;62;20399;-62
2022/07/31 05:48:39;0.00;0.00;0.62;0.00;0.00;0.62;6.43;5.83;;;25.70;41.20;;;;;;2225195;62;20732;-62
2022/07/31 05:51:24;0.00;0.00;0.62;0.00;0.00;0.62;5.83;5.20;;;25.70;41.10;;;;;;2226823;62;20635;-62
2022/07/31 05:54:08;0.00;0.00;0.62;0.00;0.00;0.62;6.70;6.10;;;25.70;41.00;;;;;;2226026;62;20377;-62
2022/07/31 05:57:19;0.00;0.00;0.62;0.00;0.00;0.62;5.43;4.93;;;25.70;41.00;;;;;;2226091;62;20373;-62
2022/07/31 06:00:08;0.00;0.00;0.62;0.00;0.00;0.62;5.43;4.93;;;25.70;40.90;;;;;;2550610;46;20471;-63
2022/07/31 06:03:01;0.00;0.00;0.62;0.00;0.00;0.62;5.90;5.00;;;25.70;40.80;;;;;;2222419;62;20489;-62
2022/07/31 06:06:08;0.00;0.00;0.62;0.00;0.00;0.62;8.33;4.93;;;25.70;40.80;;;;;;2222519;62;20656;-62
2022/07/31 06:08:54;0.00;0.00;0.62;0.00;0.00;0.62;6.77;4.50;;;25.70;40.70;;;;;;2222112;62;20405;-62
2022/07/31 06:11:39;0.00;0.00;0.62;0.00;0.00;0.62;5.60;5.10;;;25.70;40.60;;;;;;2221697;62;20371;-63
2022/07/31 06:14:24;0.00;0.00;0.62;0.00;0.00;0.62;5.10;4.60;;;25.70;40.40;;;;;;2222847;62;20650;-62
2022/07/31 06:17:39;0.00;0.00;0.62;0.00;0.00;0.62;5.40;4.90;;;25.80;40.40;;;;;;2222407;62;20390;-63
2022/07/31 06:20:30;0.00;0.00;0.62;0.00;0.00;0.62;5.30;4.80;;;25.80;40.40;;;;;;2226344;62;20410;-61
2022/07/31 06:23:15;0.00;0.00;0.62;0.00;0.00;0.62;6.73;4.83;;;25.80;40.40;;;;;;2226681;62;20373;-62
2022/07/31 06:25:59;0.00;0.00;0.62;0.00;0.00;0.62;5.70;5.07;;;25.80;40.40;;;;;;2225379;62;20410;-63
2022/07/31 06:28:44;0.00;0.00;0.62;0.00;0.00;0.62;5.30;4.77;;;25.80;40.40;;;;;;2224150;62;20421;-62
2022/07/31 06:31:29;0.00;0.00;0.62;0.00;0.00;0.62;5.33;4.23;;;25.80;40.50;;;;;;2222338;62;20367;-63
2022/07/31 06:34:17;0.00;0.00;0.62;0.00;0.00;0.62;5.33;4.83;;;25.70;40.60;;;;;;2221459;62;20370;-62
2022/07/31 06:37:01;0.00;0.00;0.62;0.00;0.00;0.62;7.63;4.60;;;25.80;40.70;;;;;;2222381;62;20461;-62
2022/07/31 06:39:46;0.00;0.00;0.62;0.00;0.00;0.62;5.53;4.77;;;25.70;40.80;;;;;;2225574;62;20434;-62
2022/07/31 06:43:03;0.00;0.00;0.62;0.00;0.00;0.62;5.33;4.83;;;25.70;41.50;;;;;;2230892;62;20382;-62
2022/07/31 06:46:12;0.00;0.00;0.62;0.00;0.00;0.62;6.93;5.47;;;25.80;41.00;;;;;;2226329;62;20373;-64
2022/07/31 06:49:33;0.00;0.00;0.62;0.00;0.00;0.62;5.50;4.90;;;25.80;41.10;;;;;;2227503;62;20483;-62
2022/07/31 06:52:19;0.00;0.00;0.62;0.00;0.00;0.62;8.40;5.00;;;25.70;41.10;;;;;;2226084;62;20374;-67
2022/07/31 06:55:05;0.00;0.00;0.62;0.00;0.00;0.62;5.67;4.67;;;25.70;41.20;;;;;;2225031;62;20369;-70
2022/07/31 06:57:50;0.00;0.00;0.62;0.00;0.00;0.62;6.90;5.23;;;25.80;41.30;;;;;;2225722;62;20723;-67
2022/07/31 07:00:35;0.00;0.00;0.62;0.00;0.00;0.62;7.23;5.77;;;25.80;41.30;;;;;;2222502;62;20463;-67
2022/07/31 07:03:19;0.00;0.00;0.62;0.00;0.00;0.62;5.17;4.77;;;25.80;41.40;;;;;;2221682;62;20442;-70
2022/07/31 07:06:06;0.00;0.00;0.62;0.00;0.00;0.62;6.40;5.40;;;25.80;41.30;;;;;;2222211;62;20432;-69
2022/07/31 07:08:51;0.00;0.00;0.62;0.00;0.00;0.62;5.10;4.43;;;25.90;41.40;;;;;;2223820;62;20437;-64
2022/07/31 07:11:36;0.00;0.00;0.62;0.00;0.00;0.62;4.80;4.40;;;25.90;41.30;;;;;;2225384;62;20446;-67
2022/07/31 07:14:21;0.00;0.00;0.62;0.00;0.00;0.62;5.33;4.57;;;26.00;41.20;;;;;;2226375;62;20370;-67
2022/07/31 07:17:05;0.00;0.00;0.62;0.00;0.00;0.62;4.47;3.97;;;26.00;41.10;;;;;;2225890;62;20370;-68
2022/07/31 07:19:51;0.00;0.00;0.62;0.00;0.00;0.62;5.97;4.90;;;26.00;41.00;;;;;;2225858;62;20425;-66
2022/07/31 07:22:37;0.00;0.00;0.62;0.00;0.00;0.62;4.90;4.50;;;26.00;41.00;;;;;;2226070;62;20374;-66
2022/07/31 07:25:24;0.00;0.00;0.62;0.00;0.00;0.62;5.10;4.60;;;26.10;41.00;;;;;;2225570;62;20415;-67
2022/07/31 07:28:09;0.00;0.00;0.62;0.00;0.00;0.62;5.50;4.70;;;26.20;40.90;;;;;;2226196;62;20426;-66
2022/07/31 07:30:54;0.00;0.00;0.62;0.00;0.00;0.62;6.83;4.40;;;26.20;40.70;;;;;;2225826;62;20451;-66
2022/07/31 07:33:39;0.00;0.00;0.62;0.00;0.00;0.62;5.73;4.40;;;26.20;40.70;;;;;;2225370;62;20370;-66
2022/07/31 07:36:25;0.00;0.00;0.62;0.00;0.00;0.62;5.50;4.20;;;26.20;40.70;;;;;;2226097;62;20389;-69
2022/07/31 07:39:17;0.00;0.00;0.62;0.00;0.00;0.62;4.77;4.37;;;26.30;40.80;;;;;;2225719;62;20471;-67
2022/07/31 07:42:01;0.00;0.00;0.62;0.00;0.00;0.62;6.33;4.30;;;26.30;40.80;;;;;;2225970;62;20403;-70
2022/07/31 07:44:46;0.00;0.00;0.62;0.00;0.00;0.62;5.50;4.40;;;26.30;40.80;;;;;;2226281;62;20370;-69
2022/07/31 07:47:32;0.00;0.00;0.62;0.00;0.00;0.62;6.27;4.60;;;26.30;40.80;;;;;;2225173;62;20435;-66
2022/07/31 07:50:16;0.00;0.00;0.62;0.00;0.00;0.62;4.70;4.30;;;26.40;40.80;;;;;;2598110;46;20426;-70
2022/07/31 07:53:20;0.00;0.00;0.62;0.00;0.00;0.62;4.30;3.90;;;26.40;40.80;;;;;;2226067;62;20394;-66
2022/07/31 07:56:35;0.00;0.00;0.62;0.00;0.00;0.62;6.20;4.20;;;26.40;40.80;;;;;;2234121;62;20427;-67
2022/07/31 07:59:40;0.00;0.00;0.62;0.00;0.00;0.62;6.17;4.17;;;26.40;40.80;;;;;;2229906;62;20519;-68
2022/07/31 08:03:01;0.00;0.00;0.62;0.00;0.00;0.62;6.23;4.90;;;26.50;40.80;;;;;;2225820;62;20370;-66
2022/07/31 08:05:46;0.00;0.00;0.62;0.00;0.00;0.62;5.00;4.50;;;26.50;40.60;;;;;;2226457;62;20374;-69
2022/07/31 08:08:32;0.00;0.00;0.62;0.00;0.00;0.62;4.63;4.23;;;26.50;40.60;;;;;;2225531;62;20454;-70
2022/07/31 08:11:47;0.00;0.00;0.62;0.00;0.00;0.62;3.93;3.40;;;26.50;40.50;;;;;;2226359;62;20370;-65
2022/07/31 08:14:41;0.00;0.00;0.62;0.00;0.00;0.62;4.17;3.77;;;26.50;40.50;;;;;;2225915;62;20581;-69
2022/07/31 08:17:45;0.00;0.00;0.62;0.00;0.00;0.62;4.43;4.03;;;26.50;40.50;;;;;;2225401;62;20430;-69
2022/07/31 08:20:30;0.00;0.00;0.62;0.00;0.00;0.62;4.70;4.30;;;26.60;40.60;;;;;;2225957;62;20427;-66
2022/07/31 08:23:15;0.00;0.00;0.62;0.00;0.00;0.62;5.63;3.70;;;26.60;40.60;;;;;;2222948;62;20593;-69
2022/07/31 08:26:00;0.00;0.00;0.62;0.00;0.00;0.62;4.67;4.27;;;26.60;40.40;;;;;;2225339;62;20394;-70
2022/07/31 08:28:47;0.00;0.00;0.62;0.00;0.00;0.62;4.10;3.37;;;26.70;40.40;;;;;;2225741;62;20802;-65
2022/07/31 08:31:32;0.00;0.00;0.62;0.00;0.00;0.62;4.70;3.60;;;26.70;40.30;;;;;;2224803;62;20387;-67
2022/07/31 08:34:36;0.00;0.00;0.62;0.00;0.00;0.62;4.10;3.70;;;26.70;40.10;;;;;;2225963;62;20370;-66
2022/07/31 08:37:22;0.00;0.00;0.62;0.00;0.00;0.62;4.60;4.00;;;26.80;40.10;;;;;;2225601;62;20366;-74
2022/07/31 08:40:08;0.00;0.00;0.62;0.00;0.00;0.62;6.43;3.60;;;26.80;40.10;;;;;;2620088;46;20435;-69
2022/07/31 08:42:54;0.00;0.00;0.62;0.00;0.00;0.62;5.00;3.93;;;26.80;40.00;;;;;;2226342;62;20586;-67
2022/07/31 08:45:42;0.00;0.00;0.62;0.00;0.00;0.62;4.33;3.93;;;26.80;40.00;;;;;;2225619;62;20394;-73
2022/07/31 08:48:41;0.00;0.00;0.62;0.00;0.00;0.62;5.00;3.83;;;26.80;39.90;;;;;;2223401;62;20398;-70
2022/07/31 08:51:27;0.00;0.00;0.62;0.00;0.00;0.62;3.70;3.40;;;26.90;39.90;;;;;;2226227;62;20779;-71
2022/07/31 08:54:32;0.00;0.00;0.62;0.00;0.00;0.62;4.63;3.60;;;26.90;39.90;;;;;;2225491;62;20660;-67
2022/07/31 08:57:17;0.00;0.00;0.62;0.00;0.00;0.62;4.90;4.07;;;26.90;39.80;;;;;;2225875;62;20542;-65
2022/07/31 09:00:06;0.00;0.00;0.62;0.00;0.00;0.62;4.53;4.10;;;27.00;39.70;;;;;;2471208;54;20609;-67
2022/07/31 09:02:53;0.00;0.00;0.62;0.00;0.00;0.62;4.67;4.20;;;27.00;39.50;;;;;;2225333;62;20381;-67
2022/07/31 09:06:08;0.00;0.00;0.62;0.00;0.00;0.62;4.00;3.50;;;27.00;39.40;;;;;;2225823;62;20406;-67
2022/07/31 09:08:55;0.00;0.00;0.62;0.00;0.00;0.62;3.57;3.27;;;27.00;39.30;;;;;;2225143;62;20409;-66
2022/07/31 09:11:46;0.00;0.00;0.62;0.00;0.00;0.62;3.90;3.60;;;27.10;39.30;;;;;;2225527;62;20460;-66
2022/07/31 09:15:03;0.00;0.00;0.62;0.00;0.00;0.62;3.73;3.43;;;27.10;39.70;;;;;;2226851;62;20786;-67
2022/07/31 09:17:50;0.00;0.00;0.62;0.00;0.00;0.62;4.87;3.80;;;27.10;38.90;;;;;;2225015;62;20374;-67
2022/07/31 09:20:36;0.00;0.00;0.62;0.00;0.00;0.62;4.80;3.43;;;27.20;39.00;;;;;;2228373;62;20830;-67
2022/07/31 09:23:22;0.00;0.00;0.62;0.00;0.00;0.62;4.20;3.40;;;27.20;38.80;;;;;;2224861;62;20419;-67
2022/07/31 09:26:07;0.00;0.00;0.62;0.00;0.00;0.62;3.67;3.37;;;27.20;38.60;;;;;;2225840;62;20370;-67
2022/07/31 09:28:59;0.00;0.00;0.62;0.00;0.00;0.62;5.30;3.73;;;27.20;38.50;;;;;;2225096;62;20430;-65
2022/07/31 09:31:44;0.00;0.00;0.62;0.00;0.00;0.62;3.40;3.10;;;27.30;38.60;;;;;;2224973;62;20593;-69
2022/07/31 09:35:12;0.00;0.00;0.62;0.00;0.00;0.62;3.50;3.20;;;27.30;38.50;;;;;;2226006;62;20645;-68
2022/07/31 09:37:59;0.00;0.00;0.62;0.00;0.00;0.62;4.53;3.60;;;27.30;38.40;;;;;;2224609;62;20382;-67
2022/07/31 09:41:23;0.00;0.00;0.62;0.00;0.00;0.62;3.90;3.60;;;27.30;38.40;;;;;;2237100;62;20412;-71
2022/07/31 09:44:14;0.00;0.00;0.62;0.00;0.00;0.62;4.40;3.87;;;27.40;38.40;;;;;;2236701;62;20370;-67
2022/07/31 09:46:59;0.00;0.00;0.62;0.00;0.00;0.62;3.60;3.13;;;27.40;38.40;;;;;;2225789;62;20419;-70
2022/07/31 09:49:53;0.00;0.00;0.62;0.00;0.00;0.62;4.40;3.90;;;27.40;38.20;;;;;;2221801;62;20410;-72
2022/07/31 09:52:39;0.00;0.00;0.62;0.00;0.00;0.62;3.87;3.53;;;27.40;38.30;;;;;;2220818;62;20400;-69
2022/07/31 09:55:28;0.00;0.00;0.62;0.00;0.00;0.62;4.60;3.87;;;27.50;38.40;;;;;;2221774;62;20569;-70
2022/07/31 09:58:13;0.00;0.00;0.62;0.00;0.00;0.62;6.17;3.97;;;27.50;38.10;;;;;;2221583;62;20493;-69
2022/07/31 10:01:01;0.00;0.00;0.62;0.00;0.00;0.62;5.80;3.53;;;27.60;38.20;;;;;;2221063;62;20400;-69
2022/07/31 10:03:50;0.00;0.00;0.62;0.00;0.00;0.62;4.37;3.70;;;27.60;38.00;;;;;;2219131;62;20589;-68
2022/07/31 10:06:35;0.00;0.00;0.62;0.00;0.00;0.62;4.03;3.60;;;27.60;38.10;;;;;;2221577;62;20412;-67
2022/07/31 10:09:23;0.00;0.00;0.62;0.00;0.00;0.62;7.63;4.23;;;27.70;38.60;;;;;;2220847;62;20406;-69
2022/07/31 10:12:48;0.00;0.00;0.62;0.00;0.00;0.62;3.23;2.97;;;27.70;37.70;;;;;;2226265;62;20451;-68
2022/07/31 10:15:35;0.00;0.00;0.62;0.00;0.00;0.62;4.63;3.53;;;27.70;37.60;;;;;;2221033;62;20412;-67
2022/07/31 10:18:45;0.00;0.00;0.62;0.00;0.00;0.62;3.53;3.23;;;27.80;37.60;;;;;;2221897;62;20726;-67
2022/07/31 10:21:56;0.00;0.00;0.62;0.00;0.00;0.62;3.43;3.13;;;27.80;37.40;;;;;;2221836;62;20761;-68
2022/07/31 10:24:50;0.00;0.00;0.62;0.00;0.00;0.62;3.73;3.33;;;27.90;37.40;;;;;;2222160;62;20379;-70
2022/07/31 10:27:36;0.00;0.00;0.62;0.00;0.00;0.62;3.40;3.10;;;27.90;37.50;;;;;;2222332;62;20375;-71
2022/07/31 10:30:27;0.00;0.00;0.62;0.00;0.00;0.62;3.73;3.43;;;27.90;37.50;;;;;;2221543;62;20383;-67
2022/07/31 10:33:13;0.00;0.00;0.62;0.00;0.00;0.62;3.20;2.90;;;27.90;37.30;;;;;;2222365;62;20375;-69
2022/07/31 10:36:04;0.00;0.00;0.62;0.00;0.00;0.62;4.13;2.90;;;28.00;37.30;;;;;;2223010;62;20646;-69
2022/07/31 10:39:19;0.00;0.00;0.62;0.00;0.00;0.62;3.80;3.40;;;28.00;37.00;;;;;;2221903;62;20383;-68
2022/07/31 10:42:30;0.00;0.00;0.62;0.00;0.00;0.62;3.67;3.27;;;28.10;36.70;;;;;;2222420;62;20481;-69
2022/07/31 10:45:16;0.00;0.00;0.62;0.00;0.00;0.62;3.80;3.40;;;28.10;36.60;;;;;;2221651;62;20742;-67
2022/07/31 10:48:10;0.00;0.00;0.62;0.00;0.00;0.62;5.40;3.10;;;28.10;36.40;;;;;;2222143;62;20399;-69
2022/07/31 10:51:15;0.00;0.00;0.62;0.00;0.00;0.62;3.83;3.47;;;28.10;36.10;;;;;;2221997;62;20382;-69
2022/07/31 10:54:21;0.00;0.00;0.62;0.00;0.00;0.62;3.47;3.17;;;28.20;36.00;;;;;;2222271;62;20371;-70
2022/07/31 10:57:30;0.00;0.00;0.62;0.00;0.00;0.62;4.20;3.60;;;28.20;36.00;;;;;;2222752;62;20391;-68
2022/07/31 11:00:39;0.00;0.00;0.62;0.00;0.00;0.62;6.40;3.07;;;28.30;35.90;;;;;;2221622;62;20387;-69
2022/07/31 11:04:01;0.00;0.00;0.62;0.00;0.00;0.62;3.37;2.90;;;28.30;35.60;;;;;;2222881;62;20382;-70
2022/07/31 11:06:59;0.00;0.00;0.62;0.00;0.00;0.62;5.47;3.60;;;28.30;35.60;;;;;;2221373;62;20490;-69
2022/07/31 11:10:21;0.00;0.00;0.62;0.00;0.00;0.62;2.50;2.30;;;28.30;35.60;;;;;;2225556;62;20478;-70
2022/07/31 11:13:24;0.00;0.00;0.62;0.00;0.00;0.62;3.37;3.07;;;28.40;35.00;;;;;;2222287;62;20367;-69